sensor_id;sensor_type;location;lat;lon;timestamp;P1;durP1;ratioP1;P2;durP2;ratioP2
9260;SDS011;4667;42.726;23.252;2023-03-31T00:01:10;7.47;;;4.70;;
9260;SDS011;4667;42.726;23.252;2023-03-31T00:03:37;8.77;;;5.80;;
9260;SDS011;4667;42.726;23.252;2023-03-31T00:06:08;10.63;;;6.00;;
9260;SDS011;4667;42.726;23.252;2023-03-31T00:08:37;9.13;;;5.33;;
9260;SDS011;4667;42.726;23.252;2023-03-31T00:11:05;8.90;;;5.53;;
9260;SDS011;4667;42.726;23.252;2023-03-31T00:13:33;9.40;;;5.70;;
9260;SDS011;4667;42.726;23.252;2023-03-31T00:16:03;9.17;;;5.27;;
9260;SDS011;4667;42.726;23.252;2023-03-31T00:18:30;12.80;;;5.97;;
9260;SDS011;4667;42.726;23.252;2023-03-31T00:21:04;8.77;;;5.60;;
9260;SDS011;4667;42.726;23.252;2023-03-31T00:23:33;7.83;;;5.77;;
9260;SDS011;4667;42.726;23.252;2023-03-31T00:26:01;8.43;;;5.83;;
9260;SDS011;4667;42.726;23.252;2023-03-31T00:28:27;10.80;;;5.90;;
9260;SDS011;4667;42.726;23.252;2023-03-31T00:30:58;7.60;;;4.90;;
9260;SDS011;4667;42.726;23.252;2023-03-31T00:33:26;12.27;;;6.43;;
9260;SDS011;4667;42.726;23.252;2023-03-31T00:35:53;12.07;;;6.53;;
9260;SDS011;4667;42.726;23.252;2023-03-31T00:38:20;14.27;;;6.40;;
9260;SDS011;4667;42.726;23.252;2023-03-31T00:40:47;6.90;;;4.53;;
9260;SDS011;4667;42.726;23.252;2023-03-31T00:43:20;7.40;;;4.93;;
9260;SDS011;4667;42.726;23.252;2023-03-31T00:45:54;8.97;;;4.10;;
9260;SDS011;4667;42.726;23.252;2023-03-31T00:48:26;11.33;;;4.27;;
9260;SDS011;4667;42.726;23.252;2023-03-31T00:50:53;6.70;;;4.10;;
9260;SDS011;4667;42.726;23.252;2023-03-31T00:53:23;5.70;;;3.30;;
9260;SDS011;4667;42.726;23.252;2023-03-31T00:55:54;7.33;;;3.50;;
9260;SDS011;4667;42.726;23.252;2023-03-31T00:58:25;5.10;;;3.47;;
9260;SDS011;4667;42.726;23.252;2023-03-31T01:00:53;6.03;;;3.30;;
9260;SDS011;4667;42.726;23.252;2023-03-31T01:03:23;5.63;;;3.07;;
9260;SDS011;4667;42.726;23.252;2023-03-31T01:05:51;5.03;;;3.10;;
9260;SDS011;4667;42.726;23.252;2023-03-31T01:08:20;5.40;;;3.93;;
9260;SDS011;4667;42.726;23.252;2023-03-31T01:10:52;3.83;;;2.53;;
9260;SDS011;4667;42.726;23.252;2023-03-31T01:13:21;4.43;;;3.03;;
9260;SDS011;4667;42.726;23.252;2023-03-31T01:15:51;5.47;;;3.60;;
9260;SDS011;4667;42.726;23.252;2023-03-31T01:18:18;6.37;;;3.17;;
9260;SDS011;4667;42.726;23.252;2023-03-31T01:20:50;5.30;;;3.23;;
9260;SDS011;4667;42.726;23.252;2023-03-31T01:26:41;6.17;;;3.80;;
9260;SDS011;4667;42.726;23.252;2023-03-31T01:32:48;5.73;;;3.60;;
9260;SDS011;4667;42.726;23.252;2023-03-31T01:39:02;2.27;;;2.00;;
9260;SDS011;4667;42.726;23.252;2023-03-31T01:42:01;5.23;;;2.10;;
9260;SDS011;4667;42.726;23.252;2023-03-31T01:44:38;2.73;;;2.03;;
9260;SDS011;4667;42.726;23.252;2023-03-31T01:47:09;2.77;;;2.00;;
9260;SDS011;4667;42.726;23.252;2023-03-31T01:49:43;2.30;;;1.47;;
9260;SDS011;4667;42.726;23.252;2023-03-31T01:52:18;2.57;;;1.70;;
9260;SDS011;4667;42.726;23.252;2023-03-31T01:54:48;3.37;;;1.73;;
9260;SDS011;4667;42.726;23.252;2023-03-31T01:57:26;5.10;;;2.00;;
9260;SDS011;4667;42.726;23.252;2023-03-31T02:00:00;2.80;;;1.53;;
9260;SDS011;4667;42.726;23.252;2023-03-31T02:02:36;4.83;;;1.93;;
9260;SDS011;4667;42.726;23.252;2023-03-31T02:05:06;2.93;;;2.13;;
9260;SDS011;4667;42.726;23.252;2023-03-31T02:07:38;2.07;;;1.77;;
9260;SDS011;4667;42.726;23.252;2023-03-31T02:10:08;3.77;;;2.50;;
9260;SDS011;4667;42.726;23.252;2023-03-31T02:12:40;1.50;;;1.37;;
9260;SDS011;4667;42.726;23.252;2023-03-31T02:15:09;2.80;;;1.80;;
9260;SDS011;4667;42.726;23.252;2023-03-31T02:17:42;2.60;;;1.50;;
9260;SDS011;4667;42.726;23.252;2023-03-31T02:20:18;1.90;;;1.50;;
9260;SDS011;4667;42.726;23.252;2023-03-31T02:22:47;2.83;;;1.50;;
9260;SDS011;4667;42.726;23.252;2023-03-31T02:25:18;1.83;;;1.40;;
9260;SDS011;4667;42.726;23.252;2023-03-31T02:27:50;2.27;;;1.63;;
9260;SDS011;4667;42.726;23.252;2023-03-31T02:30:20;1.93;;;1.57;;
9260;SDS011;4667;42.726;23.252;2023-03-31T02:32:47;3.33;;;1.50;;
9260;SDS011;4667;42.726;23.252;2023-03-31T02:35:15;3.90;;;1.73;;
9260;SDS011;4667;42.726;23.252;2023-03-31T02:37:44;8.63;;;2.10;;
9260;SDS011;4667;42.726;23.252;2023-03-31T02:40:18;3.90;;;1.70;;
9260;SDS011;4667;42.726;23.252;2023-03-31T02:42:46;1.70;;;1.60;;
9260;SDS011;4667;42.726;23.252;2023-03-31T02:45:37;3.13;;;2.17;;
9260;SDS011;4667;42.726;23.252;2023-03-31T02:48:06;2.47;;;1.90;;
9260;SDS011;4667;42.726;23.252;2023-03-31T02:50:41;4.80;;;1.97;;
9260;SDS011;4667;42.726;23.252;2023-03-31T02:53:24;4.40;;;2.03;;
9260;SDS011;4667;42.726;23.252;2023-03-31T02:56:05;4.03;;;1.93;;
9260;SDS011;4667;42.726;23.252;2023-03-31T02:58:51;1.60;;;1.50;;
9260;SDS011;4667;42.726;23.252;2023-03-31T03:01:38;3.40;;;2.13;;
9260;SDS011;4667;42.726;23.252;2023-03-31T03:04:20;5.77;;;2.70;;
9260;SDS011;4667;42.726;23.252;2023-03-31T03:07:02;6.20;;;2.47;;
9260;SDS011;4667;42.726;23.252;2023-03-31T03:09:36;3.17;;;1.70;;
9260;SDS011;4667;42.726;23.252;2023-03-31T03:12:12;3.20;;;1.97;;
9260;SDS011;4667;42.726;23.252;2023-03-31T03:14:45;3.17;;;2.40;;
9260;SDS011;4667;42.726;23.252;2023-03-31T03:17:20;4.40;;;3.00;;
9260;SDS011;4667;42.726;23.252;2023-03-31T03:19:51;4.00;;;2.33;;
9260;SDS011;4667;42.726;23.252;2023-03-31T03:22:24;3.83;;;2.40;;
9260;SDS011;4667;42.726;23.252;2023-03-31T03:24:51;4.10;;;2.30;;
9260;SDS011;4667;42.726;23.252;2023-03-31T03:27:20;6.10;;;2.30;;
9260;SDS011;4667;42.726;23.252;2023-03-31T03:29:47;4.33;;;2.17;;
9260;SDS011;4667;42.726;23.252;2023-03-31T03:32:14;2.77;;;2.37;;
9260;SDS011;4667;42.726;23.252;2023-03-31T03:34:43;4.43;;;2.63;;
9260;SDS011;4667;42.726;23.252;2023-03-31T03:37:10;8.00;;;3.00;;
9260;SDS011;4667;42.726;23.252;2023-03-31T03:39:36;4.40;;;2.90;;
9260;SDS011;4667;42.726;23.252;2023-03-31T03:42:06;5.63;;;2.60;;
9260;SDS011;4667;42.726;23.252;2023-03-31T03:44:32;5.57;;;2.77;;
9260;SDS011;4667;42.726;23.252;2023-03-31T03:47:08;4.33;;;2.73;;
9260;SDS011;4667;42.726;23.252;2023-03-31T03:49:35;3.33;;;2.63;;
9260;SDS011;4667;42.726;23.252;2023-03-31T03:52:06;4.37;;;2.60;;
9260;SDS011;4667;42.726;23.252;2023-03-31T03:54:33;4.23;;;2.30;;
9260;SDS011;4667;42.726;23.252;2023-03-31T03:57:06;5.40;;;2.50;;
9260;SDS011;4667;42.726;23.252;2023-03-31T03:59:35;3.10;;;2.80;;
9260;SDS011;4667;42.726;23.252;2023-03-31T04:02:04;4.60;;;1.90;;
9260;SDS011;4667;42.726;23.252;2023-03-31T04:04:31;5.13;;;2.97;;
9260;SDS011;4667;42.726;23.252;2023-03-31T04:07:10;5.77;;;2.53;;
9260;SDS011;4667;42.726;23.252;2023-03-31T04:09:37;4.63;;;2.47;;
9260;SDS011;4667;42.726;23.252;2023-03-31T04:12:14;5.23;;;3.63;;
9260;SDS011;4667;42.726;23.252;2023-03-31T04:14:46;10.83;;;4.00;;
9260;SDS011;4667;42.726;23.252;2023-03-31T04:17:19;7.63;;;3.23;;
9260;SDS011;4667;42.726;23.252;2023-03-31T04:19:56;4.73;;;3.27;;
9260;SDS011;4667;42.726;23.252;2023-03-31T04:22:42;10.10;;;5.17;;
9260;SDS011;4667;42.726;23.252;2023-03-31T04:25:42;5.80;;;3.87;;
9260;SDS011;4667;42.726;23.252;2023-03-31T04:28:31;7.37;;;4.23;;
9260;SDS011;4667;42.726;23.252;2023-03-31T04:31:11;5.90;;;3.17;;
9260;SDS011;4667;42.726;23.252;2023-03-31T04:33:56;3.83;;;2.57;;
9260;SDS011;4667;42.726;23.252;2023-03-31T04:36:50;6.27;;;2.90;;
9260;SDS011;4667;42.726;23.252;2023-03-31T04:39:32;4.17;;;2.50;;
9260;SDS011;4667;42.726;23.252;2023-03-31T04:42:10;3.63;;;2.67;;
9260;SDS011;4667;42.726;23.252;2023-03-31T04:44:38;2.43;;;2.23;;
9260;SDS011;4667;42.726;23.252;2023-03-31T04:47:12;3.40;;;2.63;;
9260;SDS011;4667;42.726;23.252;2023-03-31T04:50:04;2.63;;;2.13;;
9260;SDS011;4667;42.726;23.252;2023-03-31T04:52:41;4.67;;;2.67;;
9260;SDS011;4667;42.726;23.252;2023-03-31T04:55:35;1.97;;;1.80;;
9260;SDS011;4667;42.726;23.252;2023-03-31T04:58:09;3.33;;;2.63;;
9260;SDS011;4667;42.726;23.252;2023-03-31T05:00:36;5.10;;;2.03;;
9260;SDS011;4667;42.726;23.252;2023-03-31T05:03:03;2.80;;;2.13;;
9260;SDS011;4667;42.726;23.252;2023-03-31T05:05:30;4.03;;;2.03;;
9260;SDS011;4667;42.726;23.252;2023-03-31T05:08:02;3.00;;;1.90;;
9260;SDS011;4667;42.726;23.252;2023-03-31T05:13:40;1.63;;;1.33;;
9260;SDS011;4667;42.726;23.252;2023-03-31T05:16:08;1.60;;;1.20;;
9260;SDS011;4667;42.726;23.252;2023-03-31T05:18:48;2.13;;;1.67;;
9260;SDS011;4667;42.726;23.252;2023-03-31T05:21:29;3.53;;;1.33;;
9260;SDS011;4667;42.726;23.252;2023-03-31T05:24:04;3.93;;;1.90;;
9260;SDS011;4667;42.726;23.252;2023-03-31T05:29:33;3.27;;;2.07;;
9260;SDS011;4667;42.726;23.252;2023-03-31T05:32:02;4.67;;;2.63;;
9260;SDS011;4667;42.726;23.252;2023-03-31T05:34:34;2.07;;;1.77;;
9260;SDS011;4667;42.726;23.252;2023-03-31T05:37:02;1.97;;;1.33;;
9260;SDS011;4667;42.726;23.252;2023-03-31T05:39:30;3.07;;;1.87;;
9260;SDS011;4667;42.726;23.252;2023-03-31T05:41:59;2.50;;;1.70;;
9260;SDS011;4667;42.726;23.252;2023-03-31T05:44:27;2.13;;;1.83;;
9260;SDS011;4667;42.726;23.252;2023-03-31T05:46:57;4.57;;;2.67;;
9260;SDS011;4667;42.726;23.252;2023-03-31T05:49:25;1.93;;;1.63;;
9260;SDS011;4667;42.726;23.252;2023-03-31T05:51:54;1.93;;;1.83;;
9260;SDS011;4667;42.726;23.252;2023-03-31T05:54:22;3.17;;;2.30;;
9260;SDS011;4667;42.726;23.252;2023-03-31T05:56:51;3.10;;;2.20;;
9260;SDS011;4667;42.726;23.252;2023-03-31T05:59:21;2.07;;;1.90;;
9260;SDS011;4667;42.726;23.252;2023-03-31T06:01:48;2.67;;;1.73;;
9260;SDS011;4667;42.726;23.252;2023-03-31T06:04:15;2.10;;;1.90;;
9260;SDS011;4667;42.726;23.252;2023-03-31T06:06:45;3.13;;;2.00;;
9260;SDS011;4667;42.726;23.252;2023-03-31T06:09:14;2.03;;;1.83;;
9260;SDS011;4667;42.726;23.252;2023-03-31T06:11:41;2.80;;;1.93;;
9260;SDS011;4667;42.726;23.252;2023-03-31T06:14:08;3.43;;;2.67;;
9260;SDS011;4667;42.726;23.252;2023-03-31T06:16:39;2.13;;;1.70;;
9260;SDS011;4667;42.726;23.252;2023-03-31T06:19:07;4.37;;;1.80;;
9260;SDS011;4667;42.726;23.252;2023-03-31T06:21:43;2.73;;;1.90;;
9260;SDS011;4667;42.726;23.252;2023-03-31T06:24:10;2.43;;;1.57;;
9260;SDS011;4667;42.726;23.252;2023-03-31T06:26:40;4.60;;;2.03;;
9260;SDS011;4667;42.726;23.252;2023-03-31T06:29:08;2.17;;;1.63;;
9260;SDS011;4667;42.726;23.252;2023-03-31T06:31:37;3.37;;;1.70;;
9260;SDS011;4667;42.726;23.252;2023-03-31T06:34:17;3.77;;;1.80;;
9260;SDS011;4667;42.726;23.252;2023-03-31T06:36:46;2.20;;;1.40;;
9260;SDS011;4667;42.726;23.252;2023-03-31T06:39:15;2.50;;;1.60;;
9260;SDS011;4667;42.726;23.252;2023-03-31T06:41:43;3.67;;;1.70;;
9260;SDS011;4667;42.726;23.252;2023-03-31T06:44:13;7.57;;;1.70;;
9260;SDS011;4667;42.726;23.252;2023-03-31T06:46:45;2.83;;;1.70;;
9260;SDS011;4667;42.726;23.252;2023-03-31T06:49:14;2.70;;;2.13;;
9260;SDS011;4667;42.726;23.252;2023-03-31T06:51:41;4.17;;;1.83;;
9260;SDS011;4667;42.726;23.252;2023-03-31T06:54:09;4.50;;;2.03;;
9260;SDS011;4667;42.726;23.252;2023-03-31T06:56:39;6.73;;;1.83;;
9260;SDS011;4667;42.726;23.252;2023-03-31T06:59:06;2.43;;;1.73;;
9260;SDS011;4667;42.726;23.252;2023-03-31T07:01:34;4.00;;;1.60;;
9260;SDS011;4667;42.726;23.252;2023-03-31T07:04:05;4.03;;;1.80;;
9260;SDS011;4667;42.726;23.252;2023-03-31T07:06:33;6.77;;;2.37;;
9260;SDS011;4667;42.726;23.252;2023-03-31T07:09:01;2.50;;;2.17;;
9260;SDS011;4667;42.726;23.252;2023-03-31T07:11:28;2.67;;;1.90;;
9260;SDS011;4667;42.726;23.252;2023-03-31T07:14:00;3.13;;;1.87;;
9260;SDS011;4667;42.726;23.252;2023-03-31T07:16:29;3.87;;;2.03;;
9260;SDS011;4667;42.726;23.252;2023-03-31T07:18:57;4.20;;;2.20;;
9260;SDS011;4667;42.726;23.252;2023-03-31T07:21:30;6.10;;;2.23;;
9260;SDS011;4667;42.726;23.252;2023-03-31T07:23:59;5.93;;;2.47;;
9260;SDS011;4667;42.726;23.252;2023-03-31T07:26:27;2.77;;;2.27;;
9260;SDS011;4667;42.726;23.252;2023-03-31T07:28:58;5.07;;;2.90;;
9260;SDS011;4667;42.726;23.252;2023-03-31T07:31:26;2.43;;;2.17;;
9260;SDS011;4667;42.726;23.252;2023-03-31T07:33:54;3.03;;;2.00;;
9260;SDS011;4667;42.726;23.252;2023-03-31T07:36:21;3.20;;;2.80;;
9260;SDS011;4667;42.726;23.252;2023-03-31T07:38:55;5.30;;;2.43;;
9260;SDS011;4667;42.726;23.252;2023-03-31T07:41:23;2.90;;;2.50;;
9260;SDS011;4667;42.726;23.252;2023-03-31T07:44:06;3.57;;;2.40;;
9260;SDS011;4667;42.726;23.252;2023-03-31T07:46:39;4.93;;;2.57;;
9260;SDS011;4667;42.726;23.252;2023-03-31T07:49:06;2.97;;;2.67;;
9260;SDS011;4667;42.726;23.252;2023-03-31T07:54:43;2.17;;;1.70;;
9260;SDS011;4667;42.726;23.252;2023-03-31T07:57:32;4.63;;;2.40;;
9260;SDS011;4667;42.726;23.252;2023-03-31T08:00:02;2.77;;;2.03;;
9260;SDS011;4667;42.726;23.252;2023-03-31T08:03:11;3.90;;;1.93;;
9260;SDS011;4667;42.726;23.252;2023-03-31T08:05:46;2.53;;;1.77;;
9260;SDS011;4667;42.726;23.252;2023-03-31T08:12:04;1.70;;;1.47;;
9260;SDS011;4667;42.726;23.252;2023-03-31T08:14:35;2.33;;;1.83;;
9260;SDS011;4667;42.726;23.252;2023-03-31T08:17:04;3.33;;;2.80;;
9260;SDS011;4667;42.726;23.252;2023-03-31T08:19:31;7.43;;;2.27;;
9260;SDS011;4667;42.726;23.252;2023-03-31T08:22:06;4.97;;;2.27;;
9260;SDS011;4667;42.726;23.252;2023-03-31T08:24:33;2.63;;;1.50;;
9260;SDS011;4667;42.726;23.252;2023-03-31T08:27:02;3.07;;;1.80;;
9260;SDS011;4667;42.726;23.252;2023-03-31T08:29:29;2.55;;;2.00;;
9260;SDS011;4667;42.726;23.252;2023-03-31T08:31:56;4.20;;;2.17;;
9260;SDS011;4667;42.726;23.252;2023-03-31T08:34:23;2.60;;;1.90;;
9260;SDS011;4667;42.726;23.252;2023-03-31T08:36:51;4.05;;;1.40;;
9260;SDS011;4667;42.726;23.252;2023-03-31T08:39:18;2.50;;;1.50;;
9260;SDS011;4667;42.726;23.252;2023-03-31T08:41:46;5.90;;;1.63;;
9260;SDS011;4667;42.726;23.252;2023-03-31T08:44:21;6.22;;;2.78;;
9260;SDS011;4667;42.726;23.252;2023-03-31T08:46:55;1.92;;;1.35;;
9260;SDS011;4667;42.726;23.252;2023-03-31T08:49:25;1.90;;;1.20;;
9260;SDS011;4667;42.726;23.252;2023-03-31T08:51:56;1.95;;;1.65;;
9260;SDS011;4667;42.726;23.252;2023-03-31T08:54:30;1.73;;;1.38;;
9260;SDS011;4667;42.726;23.252;2023-03-31T08:56:59;2.90;;;1.48;;
9260;SDS011;4667;42.726;23.252;2023-03-31T08:59:30;2.83;;;1.58;;
9260;SDS011;4667;42.726;23.252;2023-03-31T09:02:04;3.13;;;1.40;;
9260;SDS011;4667;42.726;23.252;2023-03-31T09:04:50;6.00;;;2.03;;
9260;SDS011;4667;42.726;23.252;2023-03-31T09:07:32;2.58;;;1.60;;
9260;SDS011;4667;42.726;23.252;2023-03-31T09:10:13;2.60;;;1.50;;
9260;SDS011;4667;42.726;23.252;2023-03-31T09:12:51;2.77;;;1.60;;
9260;SDS011;4667;42.726;23.252;2023-03-31T09:15:25;2.37;;;1.67;;
9260;SDS011;4667;42.726;23.252;2023-03-31T09:17:53;4.60;;;2.08;;
9260;SDS011;4667;42.726;23.252;2023-03-31T09:20:24;1.87;;;1.20;;
9260;SDS011;4667;42.726;23.252;2023-03-31T09:22:59;3.63;;;1.70;;
9260;SDS011;4667;42.726;23.252;2023-03-31T09:25:30;2.10;;;1.43;;
9260;SDS011;4667;42.726;23.252;2023-03-31T09:27:59;3.93;;;1.70;;
9260;SDS011;4667;42.726;23.252;2023-03-31T09:30:34;1.77;;;1.20;;
9260;SDS011;4667;42.726;23.252;2023-03-31T09:33:09;2.00;;;1.20;;
9260;SDS011;4667;42.726;23.252;2023-03-31T09:35:40;2.40;;;1.37;;
9260;SDS011;4667;42.726;23.252;2023-03-31T09:38:13;5.37;;;1.40;;
9260;SDS011;4667;42.726;23.252;2023-03-31T09:40:44;4.97;;;1.30;;
9260;SDS011;4667;42.726;23.252;2023-03-31T09:43:14;1.30;;;1.20;;
9260;SDS011;4667;42.726;23.252;2023-03-31T09:45:53;5.07;;;1.30;;
9260;SDS011;4667;42.726;23.252;2023-03-31T09:48:27;1.40;;;1.30;;
9260;SDS011;4667;42.726;23.252;2023-03-31T09:51:01;2.33;;;1.75;;
9260;SDS011;4667;42.726;23.252;2023-03-31T09:53:31;2.30;;;1.55;;
9260;SDS011;4667;42.726;23.252;2023-03-31T09:56:04;4.38;;;2.17;;
9260;SDS011;4667;42.726;23.252;2023-03-31T09:58:36;5.07;;;2.00;;
9260;SDS011;4667;42.726;23.252;2023-03-31T10:01:07;2.70;;;1.63;;
9260;SDS011;4667;42.726;23.252;2023-03-31T10:03:42;4.43;;;1.50;;
9260;SDS011;4667;42.726;23.252;2023-03-31T10:06:13;3.75;;;2.08;;
9260;SDS011;4667;42.726;23.252;2023-03-31T10:08:41;4.47;;;2.05;;
9260;SDS011;4667;42.726;23.252;2023-03-31T10:11:15;2.38;;;1.40;;
9260;SDS011;4667;42.726;23.252;2023-03-31T10:13:44;4.00;;;1.33;;
9260;SDS011;4667;42.726;23.252;2023-03-31T10:16:20;1.80;;;1.60;;
9260;SDS011;4667;42.726;23.252;2023-03-31T10:18:51;4.32;;;1.40;;
9260;SDS011;4667;42.726;23.252;2023-03-31T10:21:19;1.40;;;1.30;;
9260;SDS011;4667;42.726;23.252;2023-03-31T10:23:48;2.90;;;1.58;;
9260;SDS011;4667;42.726;23.252;2023-03-31T10:26:16;1.50;;;1.40;;
9260;SDS011;4667;42.726;23.252;2023-03-31T10:28:46;3.58;;;1.70;;
9260;SDS011;4667;42.726;23.252;2023-03-31T10:31:16;3.53;;;1.88;;
9260;SDS011;4667;42.726;23.252;2023-03-31T10:33:45;1.65;;;1.40;;
9260;SDS011;4667;42.726;23.252;2023-03-31T10:36:15;2.28;;;1.48;;
9260;SDS011;4667;42.726;23.252;2023-03-31T10:38:46;2.65;;;1.40;;
9260;SDS011;4667;42.726;23.252;2023-03-31T10:41:16;3.30;;;1.30;;
9260;SDS011;4667;42.726;23.252;2023-03-31T10:43:47;5.20;;;1.63;;
9260;SDS011;4667;42.726;23.252;2023-03-31T10:46:16;3.38;;;2.00;;
9260;SDS011;4667;42.726;23.252;2023-03-31T10:48:44;1.88;;;1.70;;
9260;SDS011;4667;42.726;23.252;2023-03-31T10:51:14;4.13;;;1.45;;
9260;SDS011;4667;42.726;23.252;2023-03-31T10:53:43;1.80;;;1.50;;
9260;SDS011;4667;42.726;23.252;2023-03-31T10:56:14;1.83;;;1.50;;
9260;SDS011;4667;42.726;23.252;2023-03-31T10:58:59;2.53;;;1.45;;
9260;SDS011;4667;42.726;23.252;2023-03-31T11:01:39;4.93;;;1.83;;
9260;SDS011;4667;42.726;23.252;2023-03-31T11:04:28;4.13;;;1.90;;
9260;SDS011;4667;42.726;23.252;2023-03-31T11:07:08;2.05;;;1.70;;
9260;SDS011;4667;42.726;23.252;2023-03-31T11:09:48;4.10;;;1.45;;
9260;SDS011;4667;42.726;23.252;2023-03-31T11:12:26;7.50;;;1.70;;
9260;SDS011;4667;42.726;23.252;2023-03-31T11:15:02;1.88;;;1.52;;
9260;SDS011;4667;42.726;23.252;2023-03-31T11:17:43;2.28;;;1.48;;
9260;SDS011;4667;42.726;23.252;2023-03-31T11:20:22;3.65;;;1.65;;
9260;SDS011;4667;42.726;23.252;2023-03-31T11:23:01;1.92;;;1.50;;
9260;SDS011;4667;42.726;23.252;2023-03-31T11:25:37;3.78;;;1.30;;
9260;SDS011;4667;42.726;23.252;2023-03-31T11:28:18;3.05;;;1.48;;
9260;SDS011;4667;42.726;23.252;2023-03-31T11:30:54;3.10;;;1.70;;
9260;SDS011;4667;42.726;23.252;2023-03-31T11:33:34;3.40;;;1.50;;
9260;SDS011;4667;42.726;23.252;2023-03-31T11:36:13;3.47;;;1.63;;
9260;SDS011;4667;42.726;23.252;2023-03-31T11:38:55;3.80;;;1.48;;
9260;SDS011;4667;42.726;23.252;2023-03-31T11:41:35;4.63;;;2.45;;
9260;SDS011;4667;42.726;23.252;2023-03-31T11:44:07;3.25;;;2.00;;
9260;SDS011;4667;42.726;23.252;2023-03-31T11:46:38;3.53;;;1.90;;
9260;SDS011;4667;42.726;23.252;2023-03-31T11:49:15;2.75;;;1.70;;
9260;SDS011;4667;42.726;23.252;2023-03-31T11:51:47;4.72;;;1.80;;
9260;SDS011;4667;42.726;23.252;2023-03-31T11:54:22;2.03;;;1.83;;
9260;SDS011;4667;42.726;23.252;2023-03-31T11:56:54;2.30;;;1.73;;
9260;SDS011;4667;42.726;23.252;2023-03-31T11:59:21;3.95;;;1.52;;
9260;SDS011;4667;42.726;23.252;2023-03-31T12:01:56;2.58;;;1.70;;
9260;SDS011;4667;42.726;23.252;2023-03-31T12:04:32;2.42;;;1.58;;
9260;SDS011;4667;42.726;23.252;2023-03-31T12:07:03;1.67;;;1.10;;
9260;SDS011;4667;42.726;23.252;2023-03-31T12:09:42;2.28;;;1.30;;
9260;SDS011;4667;42.726;23.252;2023-03-31T12:12:17;3.70;;;1.40;;
9260;SDS011;4667;42.726;23.252;2023-03-31T12:14:49;2.20;;;1.25;;
9260;SDS011;4667;42.726;23.252;2023-03-31T12:17:21;7.50;;;2.03;;
9260;SDS011;4667;42.726;23.252;2023-03-31T12:19:53;4.38;;;1.23;;
9260;SDS011;4667;42.726;23.252;2023-03-31T12:22:23;1.98;;;1.75;;
9260;SDS011;4667;42.726;23.252;2023-03-31T12:24:53;7.18;;;1.70;;
9260;SDS011;4667;42.726;23.252;2023-03-31T12:27:21;3.38;;;1.67;;
9260;SDS011;4667;42.726;23.252;2023-03-31T12:29:53;1.88;;;1.38;;
9260;SDS011;4667;42.726;23.252;2023-03-31T12:32:25;3.20;;;1.58;;
9260;SDS011;4667;42.726;23.252;2023-03-31T12:35:00;4.47;;;1.95;;
9260;SDS011;4667;42.726;23.252;2023-03-31T12:37:50;1.33;;;1.20;;
9260;SDS011;4667;42.726;23.252;2023-03-31T12:40:30;4.30;;;1.58;;
9260;SDS011;4667;42.726;23.252;2023-03-31T12:43:08;1.05;;;0.95;;
9260;SDS011;4667;42.726;23.252;2023-03-31T12:45:49;3.38;;;1.27;;
9260;SDS011;4667;42.726;23.252;2023-03-31T12:48:30;2.90;;;1.20;;
9260;SDS011;4667;42.726;23.252;2023-03-31T12:51:29;2.53;;;1.58;;
9260;SDS011;4667;42.726;23.252;2023-03-31T12:54:15;2.13;;;1.15;;
9260;SDS011;4667;42.726;23.252;2023-03-31T12:57:02;3.53;;;1.25;;
9260;SDS011;4667;42.726;23.252;2023-03-31T12:59:40;2.20;;;1.15;;
9260;SDS011;4667;42.726;23.252;2023-03-31T13:04:53;3.13;;;1.10;;
9260;SDS011;4667;42.726;23.252;2023-03-31T13:07:41;3.80;;;1.33;;
9260;SDS011;4667;42.726;23.252;2023-03-31T13:10:29;4.88;;;1.30;;
9260;SDS011;4667;42.726;23.252;2023-03-31T13:13:00;3.95;;;1.63;;
9260;SDS011;4667;42.726;23.252;2023-03-31T13:15:30;4.70;;;1.20;;
9260;SDS011;4667;42.726;23.252;2023-03-31T13:17:58;2.00;;;1.33;;
9260;SDS011;4667;42.726;23.252;2023-03-31T13:20:33;2.42;;;1.27;;
9260;SDS011;4667;42.726;23.252;2023-03-31T13:23:15;3.10;;;1.08;;
9260;SDS011;4667;42.726;23.252;2023-03-31T13:25:45;2.35;;;1.42;;
9260;SDS011;4667;42.726;23.252;2023-03-31T13:28:15;2.20;;;1.20;;
9260;SDS011;4667;42.726;23.252;2023-03-31T13:30:53;1.60;;;1.08;;
9260;SDS011;4667;42.726;23.252;2023-03-31T13:33:22;1.65;;;1.20;;
9260;SDS011;4667;42.726;23.252;2023-03-31T13:35:57;2.17;;;1.08;;
9260;SDS011;4667;42.726;23.252;2023-03-31T13:38:45;3.22;;;1.10;;
9260;SDS011;4667;42.726;23.252;2023-03-31T13:41:29;1.88;;;1.30;;
9260;SDS011;4667;42.726;23.252;2023-03-31T13:50:20;2.28;;;1.65;;
9260;SDS011;4667;42.726;23.252;2023-03-31T13:53:08;3.03;;;1.08;;
9260;SDS011;4667;42.726;23.252;2023-03-31T13:59:00;5.28;;;2.10;;
9260;SDS011;4667;42.726;23.252;2023-03-31T14:05:06;3.67;;;1.52;;
9260;SDS011;4667;42.726;23.252;2023-03-31T14:07:49;3.15;;;1.33;;
9260;SDS011;4667;42.726;23.252;2023-03-31T14:10:22;3.90;;;1.58;;
9260;SDS011;4667;42.726;23.252;2023-03-31T14:12:51;3.45;;;1.67;;
9260;SDS011;4667;42.726;23.252;2023-03-31T14:15:30;3.38;;;1.30;;
9260;SDS011;4667;42.726;23.252;2023-03-31T14:17:57;2.30;;;1.10;;
9260;SDS011;4667;42.726;23.252;2023-03-31T14:20:28;2.42;;;1.13;;
9260;SDS011;4667;42.726;23.252;2023-03-31T14:23:14;1.25;;;1.15;;
9260;SDS011;4667;42.726;23.252;2023-03-31T14:25:52;2.28;;;1.38;;
9260;SDS011;4667;42.726;23.252;2023-03-31T14:28:28;2.92;;;1.58;;
9260;SDS011;4667;42.726;23.252;2023-03-31T14:31:11;4.10;;;1.80;;
9260;SDS011;4667;42.726;23.252;2023-03-31T14:33:47;5.63;;;1.42;;
9260;SDS011;4667;42.726;23.252;2023-03-31T14:36:26;2.70;;;2.28;;
9260;SDS011;4667;42.726;23.252;2023-03-31T14:39:02;1.85;;;1.35;;
9260;SDS011;4667;42.726;23.252;2023-03-31T14:41:31;1.45;;;1.00;;
9260;SDS011;4667;42.726;23.252;2023-03-31T14:44:02;4.70;;;1.40;;
9260;SDS011;4667;42.726;23.252;2023-03-31T14:46:36;2.30;;;1.73;;
9260;SDS011;4667;42.726;23.252;2023-03-31T14:49:05;4.15;;;1.30;;
9260;SDS011;4667;42.726;23.252;2023-03-31T14:51:41;2.05;;;1.33;;
9260;SDS011;4667;42.726;23.252;2023-03-31T14:54:13;1.60;;;1.20;;
9260;SDS011;4667;42.726;23.252;2023-03-31T14:56:41;2.10;;;1.30;;
9260;SDS011;4667;42.726;23.252;2023-03-31T14:59:12;7.63;;;1.60;;
9260;SDS011;4667;42.726;23.252;2023-03-31T15:01:46;5.60;;;2.80;;
9260;SDS011;4667;42.726;23.252;2023-03-31T15:04:15;4.45;;;1.88;;
9260;SDS011;4667;42.726;23.252;2023-03-31T15:06:45;3.50;;;1.60;;
9260;SDS011;4667;42.726;23.252;2023-03-31T15:09:15;2.10;;;1.38;;
9260;SDS011;4667;42.726;23.252;2023-03-31T15:11:47;2.10;;;1.90;;
9260;SDS011;4667;42.726;23.252;2023-03-31T15:14:21;1.92;;;1.60;;
9260;SDS011;4667;42.726;23.252;2023-03-31T15:19:43;3.47;;;1.35;;
9260;SDS011;4667;42.726;23.252;2023-03-31T15:22:11;2.22;;;1.58;;
9260;SDS011;4667;42.726;23.252;2023-03-31T15:24:42;4.00;;;1.63;;
9260;SDS011;4667;42.726;23.252;2023-03-31T15:27:12;4.63;;;1.55;;
9260;SDS011;4667;42.726;23.252;2023-03-31T15:29:42;4.05;;;1.08;;
9260;SDS011;4667;42.726;23.252;2023-03-31T15:32:12;3.78;;;1.33;;
9260;SDS011;4667;42.726;23.252;2023-03-31T15:34:44;2.08;;;1.35;;
9260;SDS011;4667;42.726;23.252;2023-03-31T15:37:12;2.65;;;1.85;;
9260;SDS011;4667;42.726;23.252;2023-03-31T15:39:42;2.70;;;1.45;;
9260;SDS011;4667;42.726;23.252;2023-03-31T15:42:12;1.85;;;1.52;;
9260;SDS011;4667;42.726;23.252;2023-03-31T15:44:42;3.03;;;1.45;;
9260;SDS011;4667;42.726;23.252;2023-03-31T15:47:17;4.53;;;1.70;;
9260;SDS011;4667;42.726;23.252;2023-03-31T15:49:50;2.42;;;1.75;;
9260;SDS011;4667;42.726;23.252;2023-03-31T15:52:29;4.30;;;1.50;;
9260;SDS011;4667;42.726;23.252;2023-03-31T15:54:58;2.28;;;1.30;;
9260;SDS011;4667;42.726;23.252;2023-03-31T15:57:30;1.63;;;1.40;;
9260;SDS011;4667;42.726;23.252;2023-03-31T16:00:02;2.30;;;1.70;;
9260;SDS011;4667;42.726;23.252;2023-03-31T16:02:42;3.92;;;1.85;;
9260;SDS011;4667;42.726;23.252;2023-03-31T16:05:22;4.28;;;1.70;;
9260;SDS011;4667;42.726;23.252;2023-03-31T16:08:00;3.33;;;1.67;;
9260;SDS011;4667;42.726;23.252;2023-03-31T16:10:28;5.22;;;1.80;;
9260;SDS011;4667;42.726;23.252;2023-03-31T16:12:59;3.05;;;1.98;;
9260;SDS011;4667;42.726;23.252;2023-03-31T16:15:29;3.28;;;1.70;;
9260;SDS011;4667;42.726;23.252;2023-03-31T16:18:03;2.20;;;1.60;;